Time;durP1;ratioP1;P1;durP2;ratioP2;P2;SDS_P1;SDS_P2;PMS_P1;PMS_P2;Temp;Humidity;BMP_temperature;BMP_pressure;BME280_temperature;BME280_humidity;BME280_pressure;Samples;Min_cycle;Max_cycle;Signal;HPM_P1;HPM_P2
2022/05/09 00:00:16;;;;;;;12.82;2.80;;;6.00;99.90;;;;;;5129989;27;20035;-73
2022/05/09 00:02:42;;;;;;;9.65;2.85;;;6.00;99.90;;;;;;5112036;27;20518;-74
2022/05/09 00:05:13;;;;;;;12.45;2.20;;;6.10;99.90;;;;;;5110580;27;20043;-74
2022/05/09 00:07:39;;;;;;;7.20;2.35;;;6.00;99.90;;;;;;5111555;27;20051;-74
2022/05/09 00:10:05;;;;;;;12.25;2.42;;;5.90;99.90;;;;;;5077056;27;20078;-74
2022/05/09 00:12:31;;;;;;;6.18;2.15;;;5.90;99.90;;;;;;5094522;27;20073;-74
2022/05/09 00:14:57;;;;;;;5.93;2.40;;;5.80;99.90;;;;;;5094453;27;20471;-73
2022/05/09 00:17:23;;;;;;;8.95;2.70;;;5.90;99.90;;;;;;5129013;27;20039;-73
2022/05/09 00:19:49;;;;;;;12.00;3.10;;;6.10;99.90;;;;;;5129951;27;20136;-73
2022/05/09 00:22:15;;;;;;;14.85;3.42;;;6.30;99.90;;;;;;5129138;27;20043;-74
2022/05/09 00:24:40;;;;;;;8.07;2.40;;;5.90;99.90;;;;;;5111395;27;20086;-74
2022/05/09 00:27:06;;;;;;;13.85;2.80;;;6.80;99.90;;;;;;5093783;27;20035;-73
2022/05/09 00:29:33;;;;;;;11.95;2.58;;;5.80;99.90;;;;;;5129312;27;20039;-73
2022/05/09 00:32:00;;;;;;;13.40;2.78;;;5.80;99.90;;;;;;5129424;27;20031;-73
2022/05/09 00:34:25;;;;;;;14.25;2.70;;;6.00;99.90;;;;;;5129053;27;20410;-73
2022/05/09 00:36:52;;;;;;;8.40;2.38;;;7.10;99.90;;;;;;5129966;27;20031;-73
2022/05/09 00:39:19;;;;;;;11.57;2.83;;;5.70;99.90;;;;;;5128616;27;20043;-73
2022/05/09 00:41:45;;;;;;;11.35;2.30;;;5.70;99.90;;;;;;5129447;27;20039;-73
2022/05/09 00:44:13;;;;;;;12.45;2.67;;;5.70;99.90;;;;;;5093568;27;20100;-73
2022/05/09 00:46:42;;;;;;;13.20;2.70;;;5.70;99.90;;;;;;5129336;27;20470;-73
2022/05/09 00:49:19;;;;;;;15.00;3.30;;;5.70;99.90;;;;;;5110713;27;20043;-72
2022/05/09 00:52:11;;;;;;;11.95;2.70;;;5.70;99.90;;;;;;5110079;27;20049;-73
2022/05/09 00:54:45;;;;;;;13.77;3.53;;;5.70;99.90;;;;;;5115265;27;20047;-73
2022/05/09 00:57:22;;;;;;;11.63;2.97;;;5.60;99.90;;;;;;5128903;27;20047;-73
2022/05/09 00:59:52;;;;;;;11.52;2.65;;;5.60;99.90;;;;;;5129003;27;20043;-74
2022/05/09 01:02:19;;;;;;;7.05;2.20;;;5.60;99.90;;;;;;5129518;27;20049;-74
2022/05/09 01:04:51;;;;;;;8.23;2.63;;;5.60;99.90;;;;;;5128100;27;20058;-74
2022/05/09 01:07:17;;;;;;;3.93;1.33;;;5.70;99.90;;;;;;5110961;27;20039;-74
2022/05/09 01:09:43;;;;;;;11.48;2.67;;;5.60;99.90;;;;;;5091685;27;20047;-73
2022/05/09 01:12:12;;;;;;;10.77;2.42;;;6.70;99.90;;;;;;5110079;27;20043;-74
2022/05/09 01:14:39;;;;;;;10.38;2.83;;;5.50;99.90;;;;;;5093165;27;20489;-74
2022/05/09 01:17:06;;;;;;;6.35;2.33;;;5.50;99.90;;;;;;5109905;27;20108;-74
2022/05/09 01:19:38;;;;;;;10.43;2.92;;;5.50;99.90;;;;;;5129086;27;20071;-74
2022/05/09 01:22:35;;;;;;;7.63;2.30;;;5.50;99.90;;;;;;5109210;27;20426;-73
2022/05/09 01:25:04;;;;;;;14.50;2.75;;;5.50;99.90;;;;;;5108130;27;20047;-73
2022/05/09 01:27:32;;;;;;;6.65;1.98;;;5.50;99.90;;;;;;5110352;27;20326;-73
2022/05/09 01:30:20;;;;;;;6.88;2.08;;;5.50;99.90;;;;;;5127671;27;20065;-73
2022/05/09 01:32:59;;;;;;;7.63;2.50;;;5.50;99.90;;;;;;5128427;27;20055;-73
2022/05/09 01:35:25;;;;;;;12.45;2.88;;;5.50;99.90;;;;;;5109320;27;20035;-73
2022/05/09 01:37:55;;;;;;;11.50;2.80;;;5.40;99.90;;;;;;5109711;27;20054;-73
2022/05/09 01:40:21;;;;;;;11.32;2.63;;;5.50;99.90;;;;;;5128425;27;20035;-73
2022/05/09 01:42:47;;;;;;;8.15;2.75;;;5.40;99.90;;;;;;5127369;27;20590;-73
2022/05/09 01:45:13;;;;;;;12.38;2.60;;;6.00;99.90;;;;;;5109758;27;20039;-73
2022/05/09 01:50:24;;;;;;;10.00;2.75;;;5.40;99.90;;;;;;5128000;27;20474;-74
2022/05/09 01:52:50;;;;;;;7.45;2.50;;;5.80;99.90;;;;;;5092472;27;20079;-74
2022/05/09 01:55:16;;;;;;;10.27;2.88;;;5.40;99.90;;;;;;5127567;27;20486;-74
2022/05/09 01:57:41;;;;;;;7.95;2.63;;;5.40;99.90;;;;;;5092760;27;20058;-74
2022/05/09 02:00:08;;;;;;;10.10;3.13;;;5.30;99.90;;;;;;5126950;27;20047;-74
2022/05/09 02:02:35;;;;;;;12.25;2.80;;;5.40;99.90;;;;;;5110029;27;20043;-74
2022/05/09 02:05:01;;;;;;;8.30;3.47;;;5.40;99.90;;;;;;5127376;27;20550;-74
2022/05/09 02:07:27;;;;;;;8.95;2.67;;;4.50;99.90;;;;;;5092575;28;20118;-75
2022/05/09 02:09:53;;;;;;;9.18;2.83;;;5.40;99.90;;;;;;5091894;27;20173;-73
2022/05/09 02:12:19;;;;;;;22.13;3.30;;;6.50;99.90;;;;;;5127376;27;20058;-73
2022/05/09 02:14:46;;;;;;;7.75;2.75;;;5.30;99.90;;;;;;5109350;27;20043;-74
2022/05/09 02:17:13;;;;;;;12.32;2.30;;;5.30;99.90;;;;;;5108473;28;20143;-73
2022/05/09 02:19:39;;;;;;;9.73;2.20;;;5.30;99.90;;;;;;5092503;27;20051;-74
2022/05/09 02:22:06;;;;;;;11.20;2.08;;;5.30;99.90;;;;;;5126985;28;20440;-74
2022/05/09 02:24:32;;;;;;;6.32;2.25;;;6.50;99.90;;;;;;5127453;28;20100;-73
2022/05/09 02:26:58;;;;;;;5.47;2.22;;;5.60;99.90;;;;;;5092194;28;20043;-74
2022/05/09 02:29:24;;;;;;;13.18;2.50;;;5.40;99.90;;;;;;5127329;28;20112;-73
2022/05/09 02:31:50;;;;;;;5.28;2.45;;;5.10;99.90;;;;;;5109367;28;20086;-74
2022/05/09 02:34:16;;;;;;;8.02;2.45;;;5.10;99.90;;;;;;5108012;28;20082;-73
2022/05/09 02:36:42;;;;;;;6.65;2.20;;;5.10;99.90;;;;;;5109322;28;20039;-73
2022/05/09 02:39:08;;;;;;;6.65;2.50;;;5.10;99.90;;;;;;5074915;28;20039;-73
2022/05/09 02:41:34;;;;;;;6.68;2.13;;;5.80;99.90;;;;;;5092120;28;20075;-73
2022/05/09 02:44:00;;;;;;;8.65;2.30;;;5.10;99.90;;;;;;5108500;28;20044;-74
2022/05/09 02:46:26;;;;;;;6.47;2.42;;;5.00;99.90;;;;;;5127283;28;20039;-74
2022/05/09 02:48:52;;;;;;;12.13;2.42;;;5.00;99.90;;;;;;5109164;28;20122;-74
2022/05/09 02:51:18;;;;;;;7.38;2.58;;;6.00;99.90;;;;;;5126905;28;20130;-73
2022/05/09 02:53:43;;;;;;;6.43;3.10;;;6.20;99.90;;;;;;5109209;28;20027;-74
2022/05/09 02:56:10;;;;;;;8.73;2.83;;;5.00;99.90;;;;;;5126462;28;20051;-74
2022/05/09 02:58:36;;;;;;;11.23;2.78;;;5.00;99.90;;;;;;5108699;28;20092;-73
2022/05/09 03:01:03;;;;;;;5.22;2.28;;;4.90;99.90;;;;;;5126886;28;20488;-73
2022/05/09 03:06:14;;;;;;;15.63;2.95;;;4.90;99.90;;;;;;5127292;28;20054;-73
2022/05/09 03:08:40;;;;;;;8.77;3.83;;;4.90;99.90;;;;;;5108032;28;20047;-73
2022/05/09 03:11:06;;;;;;;10.35;3.90;;;4.90;99.90;;;;;;5108601;28;20074;-73
2022/05/09 03:13:32;;;;;;;5.10;2.28;;;4.80;99.90;;;;;;5091778;28;20490;-73
2022/05/09 03:15:58;;;;;;;10.77;3.03;;;4.80;99.90;;;;;;5127511;28;20043;-72
2022/05/09 03:18:24;;;;;;;8.77;2.58;;;4.90;99.90;;;;;;5091623;28;20043;-73
2022/05/09 03:20:51;;;;;;;10.77;2.75;;;4.80;99.90;;;;;;5108154;28;20103;-74
2022/05/09 03:23:18;;;;;;;12.10;3.35;;;4.80;99.90;;;;;;5127812;28;20041;-74
2022/05/09 03:25:44;;;;;;;9.13;2.45;;;4.80;99.90;;;;;;5126038;28;20042;-74
2022/05/09 03:28:14;;;;;;;7.90;2.33;;;4.80;99.90;;;;;;5127278;28;20071;-74
2022/05/09 03:30:40;;;;;;;9.43;3.13;;;4.80;99.90;;;;;;5108642;28;20042;-74
2022/05/09 03:33:06;;;;;;;7.80;2.58;;;5.50;99.90;;;;;;5129043;27;20040;-74
2022/05/09 03:35:32;;;;;;;7.90;3.13;;;5.60;99.90;;;;;;5130623;27;20050;-75
2022/05/09 03:37:58;;;;;;;5.88;2.50;;;4.80;99.90;;;;;;5129861;27;20042;-74
2022/05/09 03:40:24;;;;;;;4.40;2.35;;;4.80;99.90;;;;;;5130344;27;20043;-74
2022/05/09 03:42:50;;;;;;;10.40;2.58;;;4.80;99.90;;;;;;5129318;27;20089;-74
2022/05/09 03:45:16;;;;;;;14.30;2.33;;;4.80;99.90;;;;;;5112151;27;20054;-73
2022/05/09 03:47:42;;;;;;;10.18;2.75;;;4.80;99.90;;;;;;5130296;27;20031;-71
2022/05/09 03:50:11;;;;;;;13.00;2.42;;;4.80;99.90;;;;;;5130370;27;20498;-73
2022/05/09 03:52:37;;;;;;;13.35;2.92;;;4.80;99.90;;;;;;5130568;27;20371;-73
2022/05/09 03:55:03;;;;;;;5.15;2.38;;;4.80;99.90;;;;;;5129643;27;20054;-73
2022/05/09 03:57:28;;;;;;;9.68;2.65;;;4.70;99.90;;;;;;5130867;27;20039;-73
2022/05/09 03:59:54;;;;;;;7.75;2.88;;;4.70;99.90;;;;;;5129463;27;20043;-73
2022/05/09 04:02:20;;;;;;;11.23;2.28;;;4.80;99.90;;;;;;5130312;27;20043;-73
2022/05/09 04:04:45;;;;;;;4.85;2.38;;;4.70;99.90;;;;;;5111416;27;20054;-73
2022/05/09 04:07:11;;;;;;;6.22;2.75;;;4.80;99.90;;;;;;5129867;27;20540;-73
2022/05/09 04:09:36;;;;;;;8.68;2.42;;;4.80;99.90;;;;;;5111298;27;20071;-73
2022/05/09 04:12:03;;;;;;;8.68;2.33;;;6.00;99.90;;;;;;5110790;27;20473;-73
2022/05/09 04:17:14;;;;;;;5.75;2.58;;;4.80;99.90;;;;;;5110848;27;20393;-72
2022/05/09 04:19:41;;;;;;;7.85;2.55;;;4.90;99.90;;;;;;5094602;27;20127;-72
2022/05/09 04:22:07;;;;;;;8.00;2.50;;;5.80;99.90;;;;;;5094469;27;20112;-73
2022/05/09 04:24:33;;;;;;;5.53;2.65;;;4.90;99.90;;;;;;5129683;27;20427;-73
2022/05/09 04:27:00;;;;;;;9.52;2.88;;;4.90;99.90;;;;;;5094136;27;20131;-73
2022/05/09 04:29:27;;;;;;;6.05;2.35;;;4.90;99.90;;;;;;5093688;27;20079;-72
2022/05/09 04:31:53;;;;;;;3.97;2.30;;;5.00;99.90;;;;;;5111596;27;20042;-73
2022/05/09 04:34:19;;;;;;;6.57;2.45;;;5.00;99.90;;;;;;5129015;27;20372;-73
2022/05/09 04:36:45;;;;;;;5.05;1.85;;;5.00;99.90;;;;;;5111290;27;20035;-73
2022/05/09 04:39:11;;;;;;;7.50;2.20;;;5.10;99.90;;;;;;5094085;27;20099;-74
2022/05/09 04:41:38;;;;;;;5.75;2.58;;;5.10;99.90;;;;;;5093553;27;20122;-73
2022/05/09 04:44:05;;;;;;;7.28;2.47;;;5.10;99.90;;;;;;5110771;27;20067;-73
2022/05/09 04:46:33;;;;;;;9.50;2.40;;;6.10;99.90;;;;;;5109844;27;20482;-74
2022/05/09 04:48:59;;;;;;;4.70;2.28;;;5.30;99.90;;;;;;5093569;27;20039;-75
2022/05/09 04:51:24;;;;;;;5.30;2.50;;;5.30;99.90;;;;;;5076328;27;20103;-74
2022/05/09 04:53:50;;;;;;;10.43;2.92;;;5.40;99.90;;;;;;5129485;27;20047;-75
2022/05/09 04:56:17;;;;;;;10.00;2.60;;;5.50;99.90;;;;;;5129339;27;20586;-74
2022/05/09 04:58:43;;;;;;;3.97;2.00;;;5.60;99.90;;;;;;5129317;27;20144;-76
2022/05/09 05:01:09;;;;;;;10.40;3.45;;;5.70;99.90;;;;;;5129812;27;20122;-75
2022/05/09 05:03:35;;;;;;;8.52;3.70;;;5.80;99.90;;;;;;5128285;27;20363;-74
2022/05/09 05:06:03;;;;;;;7.07;3.85;;;5.90;99.90;;;;;;5129655;27;20043;-74
2022/05/09 05:08:33;;;;;;;13.45;3.78;;;6.00;99.90;;;;;;5128588;27;20077;-75
2022/05/09 05:11:00;;;;;;;14.20;3.83;;;6.10;99.90;;;;;;5129338;27;20047;-75
2022/05/09 05:13:27;;;;;;;14.10;4.22;;;6.30;99.90;;;;;;5129116;27;20044;-74
2022/05/09 05:15:54;;;;;;;13.40;4.40;;;6.40;99.90;;;;;;5129347;27;20108;-74
2022/05/09 05:18:25;;;;;;;17.05;4.45;;;6.50;99.90;;;;;;5129305;27;20035;-73
2022/05/09 05:20:52;;;;;;;15.27;4.90;;;6.70;99.90;;;;;;5128182;27;20050;-75
2022/05/09 05:23:18;;;;;;;19.33;5.40;;;6.80;99.90;;;;;;5129321;27;20050;-75
2022/05/09 05:25:45;;;;;;;19.52;4.70;;;6.90;99.90;;;;;;5092648;27;20118;-75
2022/05/09 05:28:13;;;;;;;18.60;4.68;;;7.10;99.90;;;;;;5093611;27;20043;-74
2022/05/09 05:30:39;;;;;;;19.88;4.78;;;8.10;99.90;;;;;;5110006;27;20039;-74
2022/05/09 05:33:05;;;;;;;22.55;4.53;;;7.40;99.90;;;;;;5109246;27;20182;-74
2022/05/09 05:35:31;;;;;;;25.58;5.57;;;7.60;99.90;;;;;;5129049;27;20195;-73
2022/05/09 05:37:57;;;;;;;16.75;5.05;;;7.60;99.90;;;;;;5109130;27;20123;-73
2022/05/09 05:40:23;;;;;;;12.25;4.18;;;7.80;99.90;;;;;;5110542;27;20606;-73
2022/05/09 05:42:52;;;;;;;17.90;4.97;;;9.10;99.90;;;;;;5127753;27;20100;-73
2022/05/09 05:45:20;;;;;;;21.88;4.82;;;9.10;99.90;;;;;;5109565;27;20122;-73
2022/05/09 05:47:47;;;;;;;16.33;4.28;;;8.20;99.90;;;;;;5128491;27;20046;-73
2022/05/09 05:50:15;;;;;;;16.60;4.95;;;8.60;99.90;;;;;;5109308;27;20107;-73
2022/05/09 05:52:41;;;;;;;13.32;3.47;;;8.40;99.90;;;;;;5128636;27;20038;-74
2022/05/09 05:55:07;;;;;;;18.92;5.43;;;8.60;99.90;;;;;;5126878;27;20134;-74
2022/05/09 05:57:35;;;;;;;10.65;3.95;;;8.70;99.90;;;;;;5128681;27;20152;-74
2022/05/09 06:00:09;;;;;;;16.10;4.20;;;9.00;99.90;;;;;;5109412;27;20509;-76
2022/05/09 06:02:38;;;;;;;19.20;4.68;;;8.90;99.90;;;;;;5076179;28;20401;-75
2022/05/09 06:05:08;;;;;;;26.77;4.97;;;9.00;99.90;;;;;;5128312;27;20042;-75
2022/05/09 06:07:34;;;;;;;12.18;4.35;;;9.10;99.90;;;;;;5092280;27;20043;-75
2022/05/09 06:10:00;;;;;;;10.73;3.72;;;9.30;99.90;;;;;;5075794;27;20046;-75
2022/05/09 06:12:25;;;;;;;19.70;4.18;;;9.40;99.90;;;;;;5092406;27;20043;-74
2022/05/09 06:17:37;;;;;;;14.18;3.58;;;9.60;99.90;;;;;;5110399;28;20199;-75
2022/05/09 06:20:11;;;;;;;10.38;3.05;;;9.70;99.90;;;;;;5109721;28;20047;-75
2022/05/09 06:22:38;;;;;;;9.40;3.35;;;9.90;99.90;;;;;;5128559;28;20051;-75
2022/05/09 06:25:07;;;;;;;14.73;3.47;;;10.00;99.90;;;;;;5127416;28;20046;-73
2022/05/09 06:27:33;;;;;;;12.30;3.75;;;10.00;99.90;;;;;;5127990;28;20050;-78
2022/05/09 06:30:03;;;;;;;12.80;3.65;;;10.10;99.90;;;;;;5127688;28;20055;-76
2022/05/09 06:32:29;;;;;;;26.95;4.15;;;10.30;99.90;;;;;;5109443;28;20062;-76
2022/05/09 06:34:55;;;;;;;14.07;3.58;;;10.40;99.90;;;;;;5092518;28;20039;-76
2022/05/09 06:37:21;;;;;;;12.65;3.47;;;10.50;99.90;;;;;;5108788;28;20038;-76
2022/05/09 06:39:47;;;;;;;13.77;4.07;;;11.10;99.90;;;;;;5092716;28;20043;-76
2022/05/09 06:42:12;;;;;;;13.88;4.50;;;10.60;99.90;;;;;;5126822;28;20432;-75
2022/05/09 06:44:38;;;;;;;9.43;3.35;;;10.90;99.90;;;;;;5109485;28;20096;-75
2022/05/09 06:47:05;;;;;;;18.83;4.15;;;10.90;99.90;;;;;;5109207;28;20050;-74
2022/05/09 06:49:31;;;;;;;9.25;3.22;;;11.00;99.90;;;;;;5108966;28;20499;-74
2022/05/09 06:51:57;;;;;;;8.10;3.20;;;11.20;99.90;;;;;;5127971;28;20078;-75
2022/05/09 06:54:23;;;;;;;16.83;3.83;;;11.70;99.90;;;;;;5108609;28;20507;-75
2022/05/09 06:56:49;;;;;;;11.82;3.33;;;11.30;99.90;;;;;;5109445;28;20134;-75
2022/05/09 06:59:15;;;;;;;14.60;3.88;;;11.50;99.90;;;;;;5108435;28;20398;-75
2022/05/09 07:01:42;;;;;;;11.13;3.00;;;11.60;99.90;;;;;;5109578;28;20074;-74
2022/05/09 07:04:10;;;;;;;14.95;4.97;;;11.70;99.90;;;;;;5092669;28;20055;-74
2022/05/09 07:06:35;;;;;;;12.82;3.03;;;11.80;99.90;;;;;;5127716;27;20482;-74
2022/05/09 07:09:02;;;;;;;10.45;3.10;;;12.10;99.90;;;;;;5131497;27;20035;-73
2022/05/09 07:11:28;;;;;;;8.93;3.17;;;12.10;99.90;;;;;;5112328;27;20055;-73
2022/05/09 07:13:54;;;;;;;12.90;3.33;;;12.20;99.90;;;;;;5113120;27;20049;-74
2022/05/09 07:16:21;;;;;;;10.02;3.13;;;12.40;99.90;;;;;;5112148;27;20054;-74
2022/05/09 07:18:47;;;;;;;13.35;3.92;;;12.50;99.90;;;;;;5131344;27;20398;-74
2022/05/09 07:21:13;;;;;;;13.48;3.33;;;12.60;99.90;;;;;;5130932;27;20054;-73
2022/05/09 07:23:39;;;;;;;6.57;2.65;;;12.70;99.90;;;;;;5112757;27;20039;-75
2022/05/09 07:26:06;;;;;;;15.60;3.55;;;12.80;99.90;;;;;;5095564;27;20126;-73
2022/05/09 07:28:31;;;;;;;7.57;2.90;;;12.90;99.90;;;;;;5112764;27;20460;-75
2022/05/09 07:30:59;;;;;;;11.32;3.88;;;13.00;99.90;;;;;;5113009;27;20035;-74
2022/05/09 07:33:25;;;;;;;9.88;3.47;;;13.10;99.90;;;;;;5112118;27;20122;-74
2022/05/09 07:35:51;;;;;;;10.32;3.45;;;13.40;99.90;;;;;;5112452;27;20047;-74
2022/05/09 07:38:17;;;;;;;16.20;3.75;;;13.40;99.90;;;;;;5111817;27;20107;-74
2022/05/09 07:40:45;;;;;;;9.57;3.55;;;13.50;99.90;;;;;;5112303;27;20103;-75
2022/05/09 07:43:17;;;;;;;10.95;2.78;;;13.60;99.90;;;;;;5130822;27;20047;-76
2022/05/09 07:45:44;;;;;;;15.48;3.72;;;13.70;99.90;;;;;;5111921;27;20075;-75
2022/05/09 07:48:10;;;;;;;8.25;3.30;;;13.90;99.90;;;;;;5113041;27;20043;-75
2022/05/09 07:50:37;;;;;;;12.02;3.00;;;14.00;99.90;;;;;;5111087;27;20051;-75
2022/05/09 07:53:11;;;;;;;11.55;3.17;;;14.20;99.90;;;;;;5130937;27;20111;-75
2022/05/09 07:55:39;;;;;;;11.15;3.13;;;14.30;99.90;;;;;;5111827;27;20043;-75
2022/05/09 07:58:05;;;;;;;9.60;3.22;;;14.40;99.90;;;;;;5112249;27;20103;-75
2022/05/09 08:00:30;;;;;;;11.63;3.08;;;14.50;99.90;;;;;;5130608;27;20031;-75
2022/05/09 08:02:56;;;;;;;12.10;2.97;;;14.70;99.90;;;;;;5129925;27;20039;-75
2022/05/09 08:05:22;;;;;;;16.17;3.17;;;14.80;99.90;;;;;;5111940;27;20046;-75
2022/05/09 08:07:49;;;;;;;8.50;2.83;;;14.90;99.90;;;;;;5111269;27;20040;-75
2022/05/09 08:10:16;;;;;;;15.82;2.80;;;15.00;99.90;;;;;;5111716;27;20051;-74
2022/05/09 08:12:42;;;;;;;14.40;3.88;;;15.20;99.90;;;;;;5111379;27;20047;-74
2022/05/09 08:15:11;;;;;;;12.50;2.78;;;15.40;99.90;;;;;;5061432;27;20494;-74
2022/05/09 08:17:37;;;;;;;5.60;1.83;;;15.60;99.90;;;;;;5094408;27;20126;-74
2022/05/09 08:20:03;;;;;;;5.80;1.77;;;15.70;99.90;;;;;;5110834;27;20126;-75
2022/05/09 08:22:31;;;;;;;10.93;2.15;;;16.00;99.90;;;;;;5130559;27;20075;-74
2022/05/09 08:25:01;;;;;;;6.72;2.47;;;16.40;99.90;;;;;;5094484;27;20042;-75
2022/05/09 08:27:27;;;;;;;7.78;2.63;;;16.90;99.90;;;;;;5130327;27;20386;-75
2022/05/09 08:29:56;;;;;;;8.85;3.35;;;17.40;99.90;;;;;;5110826;27;20049;-76
2022/05/09 08:32:26;;;;;;;8.05;2.65;;;17.80;99.90;;;;;;5129918;27;20043;-75
2022/05/09 08:34:53;;;;;;;7.82;2.00;;;18.10;98.70;;;;;;5130315;27;20074;-75
2022/05/09 08:37:20;;;;;;;10.32;3.17;;;18.30;98.80;;;;;;5110922;27;20140;-75
2022/05/09 08:39:46;;;;;;;8.98;2.33;;;18.40;98.00;;;;;;5111442;27;20540;-75
2022/05/09 08:42:18;;;;;;;8.30;2.35;;;18.60;96.70;;;;;;5093643;27;20565;-75
2022/05/09 08:44:57;;;;;;;9.70;2.80;;;18.70;96.10;;;;;;5111244;27;20043;-75
2022/05/09 08:47:41;;;;;;;12.48;2.30;;;18.90;96.70;;;;;;5130132;27;20118;-75
2022/05/09 08:50:24;;;;;;;6.32;2.38;;;19.00;95.70;;;;;;5110188;27;20047;-75
2022/05/09 08:53:05;;;;;;;9.73;2.03;;;19.20;94.90;;;;;;5129691;27;20047;-75
2022/05/09 08:55:40;;;;;;;14.35;2.20;;;19.50;93.80;;;;;;5094095;27;20039;-73
2022/05/09 08:58:29;;;;;;;10.68;1.85;;;19.60;89.00;;;;;;5110890;27;20394;-73
2022/05/09 09:00:55;;;;;;;6.60;1.67;;;19.70;71.50;;;;;;5079794;27;20051;-75
2022/05/09 09:03:24;;;;;;;9.43;2.10;;;19.70;85.60;;;;;;5128846;27;20039;-75
2022/05/09 09:05:53;;;;;;;6.50;1.95;;;19.80;81.30;;;;;;5129175;27;20490;-75
2022/05/09 09:08:28;;;;;;;7.00;1.80;;;20.20;79.40;;;;;;5093747;27;20122;-73
2022/05/09 09:11:02;;;;;;;4.63;1.73;;;19.90;77.30;;;;;;5128590;27;20141;-74
2022/05/09 09:13:40;;;;;;;7.40;2.05;;;19.90;76.00;;;;;;5111239;27;20405;-74
2022/05/09 09:16:17;;;;;;;7.85;2.95;;;19.90;75.20;;;;;;5092848;27;20184;-74
2022/05/09 09:19:07;;;;;;;7.35;1.40;;;19.80;72.80;;;;;;5110364;27;20047;-74
2022/05/09 09:21:39;;;;;;;6.88;1.35;;;19.60;68.40;;;;;;5093201;27;20143;-75
2022/05/09 09:24:27;;;;;;;4.95;1.45;;;19.40;70.80;;;;;;5128106;27;20487;-74
2022/05/09 09:27:31;;;;;;;6.38;1.30;;;19.30;69.30;;;;;;5129095;27;20054;-75
2022/05/09 09:29:59;;;;;;;6.00;1.63;;;19.30;71.50;;;;;;5105097;27;20507;-75
2022/05/09 09:32:26;;;;;;;9.18;1.77;;;19.40;76.30;;;;;;5075545;27;20547;-75
2022/05/09 09:35:06;;;;;;;8.90;1.65;;;19.50;74.30;;;;;;5110294;27;20055;-75
2022/05/09 09:37:31;;;;;;;4.45;1.33;;;19.50;65.80;;;;;;5109203;27;20155;-75
2022/05/09 09:39:58;;;;;;;6.45;1.60;;;19.60;70.10;;;;;;5110213;27;20118;-75
2022/05/09 09:42:24;;;;;;;4.88;1.38;;;19.70;67.60;;;;;;5110346;27;20039;-75
2022/05/09 09:44:53;;;;;;;7.15;1.70;;;19.80;65.50;;;;;;5109709;27;20118;-74
2022/05/09 09:47:18;;;;;;;9.13;2.45;;;19.90;62.80;;;;;;5109809;27;20104;-73
2022/05/09 09:49:48;;;;;;;12.68;1.75;;;19.90;61.50;;;;;;5091958;27;20051;-74
2022/05/09 09:52:45;;;;;;;4.72;1.55;;;20.00;60.80;;;;;;5128231;27;20086;-74
2022/05/09 09:55:29;;;;;;;6.55;1.75;;;19.90;55.10;;;;;;5109380;27;20109;-74
2022/05/09 09:57:57;;;;;;;10.50;2.22;;;20.20;53.90;;;;;;5092782;27;20039;-75
2022/05/09 10:00:28;;;;;;;13.68;2.55;;;20.40;58.40;;;;;;5128530;27;20039;-75
2022/05/09 10:02:55;;;;;;;7.88;1.95;;;20.50;58.70;;;;;;5108895;27;20050;-75
2022/05/09 10:05:32;;;;;;;8.18;1.70;;;20.50;57.60;;;;;;5093356;27;20398;-73
2022/05/09 10:08:16;;;;;;;8.50;1.73;;;20.40;53.90;;;;;;5109547;27;20092;-74
2022/05/09 10:11:00;;;;;;;8.40;2.50;;;20.40;55.80;;;;;;5094594;28;20067;-73
2022/05/09 10:13:41;;;;;;;7.38;1.75;;;20.40;54.80;;;;;;5093000;28;20058;-73
2022/05/09 10:16:33;;;;;;;11.75;2.75;;;20.50;56.00;;;;;;5108879;27;20054;-72
2022/05/09 10:19:01;;;;;;;6.13;1.60;;;20.80;55.70;;;;;;5109449;28;20047;-71
2022/05/09 10:24:48;;;;;;;7.70;1.83;;;21.00;54.70;;;;;;5108504;28;20050;-71
2022/05/09 10:27:26;;;;;;;7.40;1.60;;;21.20;52.80;;;;;;5127874;28;20047;-74
2022/05/09 10:30:14;;;;;;;11.82;1.70;;;21.20;52.80;;;;;;5109150;28;20108;-74
2022/05/09 10:32:54;;;;;;;9.48;1.88;;;21.20;53.70;;;;;;5040920;28;20079;-74
2022/05/09 10:35:25;;;;;;;7.60;1.48;;;21.40;51.80;;;;;;5109362;28;20051;-73
2022/05/09 10:37:50;;;;;;;7.95;1.65;;;21.50;52.60;;;;;;5127785;28;20406;-74
2022/05/09 10:40:55;;;;;;;7.35;1.77;;;21.50;52.60;;;;;;5127903;28;20038;-74
2022/05/09 10:43:42;;;;;;;7.75;1.30;;;21.50;46.60;;;;;;5081954;27;20051;-76
2022/05/09 10:46:11;;;;;;;6.78;0.95;;;21.50;43.00;;;;;;5112971;27;20051;-75
2022/05/09 10:48:53;;;;;;;4.43;1.10;;;21.40;47.30;;;;;;5113471;27;20058;-75
2022/05/09 10:51:45;;;;;;;4.30;1.05;;;21.40;44.30;;;;;;5113508;27;20502;-75
2022/05/09 10:54:57;;;;;;;3.65;0.95;;;21.40;42.80;;;;;;5112322;27;20054;-74
2022/05/09 10:57:34;;;;;;;9.05;1.38;;;21.40;43.80;;;;;;5091015;27;20054;-74
2022/05/09 11:00:20;;;;;;;6.30;1.40;;;21.50;44.20;;;;;;5131928;27;20138;-74
2022/05/09 11:03:16;;;;;;;6.65;1.27;;;21.60;42.70;;;;;;5130766;27;20043;-74
2022/05/09 11:06:00;;;;;;;5.93;1.45;;;21.60;42.60;;;;;;5131494;27;20134;-74
2022/05/09 11:08:28;;;;;;;6.25;1.55;;;21.70;43.00;;;;;;5113189;27;20392;-74
2022/05/09 11:11:04;;;;;;;4.65;1.40;;;21.80;45.20;;;;;;5130631;27;20093;-73
2022/05/09 11:13:47;;;;;;;8.68;1.67;;;21.80;44.40;;;;;;5131557;27;20054;-74
2022/05/09 11:16:33;;;;;;;4.50;1.00;;;21.90;43.50;;;;;;5131128;27;20049;-74
2022/05/09 11:19:13;;;;;;;4.65;1.58;;;22.00;43.50;;;;;;5130438;27;20495;-74
2022/05/09 11:22:09;;;;;;;4.28;1.27;;;22.10;45.10;;;;;;5095728;27;20038;-74
2022/05/09 11:25:21;;;;;;;13.70;1.83;;;22.30;44.40;;;;;;5112619;27;20066;-74
2022/05/09 11:28:18;;;;;;;6.60;1.50;;;22.40;43.50;;;;;;5112139;27;20484;-74
2022/05/09 11:31:05;;;;;;;6.38;1.30;;;22.50;44.10;;;;;;5071723;27;20066;-74
2022/05/09 11:33:42;;;;;;;4.38;1.33;;;22.70;44.70;;;;;;5112498;27;20112;-75
2022/05/09 11:36:39;;;;;;;6.40;1.70;;;22.60;43.90;;;;;;5112334;27;20397;-73
2022/05/09 11:39:10;;;;;;;5.63;1.63;;;22.60;41.70;;;;;;5104853;27;20086;-74
2022/05/09 11:41:40;;;;;;;6.18;1.35;;;22.60;44.00;;;;;;5112101;27;20086;-75
2022/05/09 11:44:11;;;;;;;4.80;1.10;;;22.60;44.50;;;;;;5112148;27;20055;-73
2022/05/09 11:47:29;;;;;;;3.88;1.58;;;22.60;44.20;;;;;;5095005;27;20051;-74
2022/05/09 11:50:13;;;;;;;3.00;1.30;;;22.80;42.30;;;;;;5039814;27;20047;-73
2022/05/09 11:52:43;;;;;;;6.65;1.55;;;22.90;43.80;;;;;;5111629;28;20054;-74
2022/05/09 11:55:22;;;;;;;8.27;1.70;;;23.10;44.60;;;;;;5130661;27;20180;-74
2022/05/09 11:57:58;;;;;;;3.92;1.42;;;23.30;42.50;;;;;;5111258;27;20421;-75
2022/05/09 12:00:28;;;;;;;10.27;1.60;;;23.30;42.90;;;;;;5112587;27;20046;-74
2022/05/09 12:02:58;;;;;;;3.85;1.30;;;23.40;43.40;;;;;;5094738;27;20149;-75
2022/05/09 12:05:26;;;;;;;9.85;1.48;;;23.60;43.10;;;;;;5112400;27;20039;-74
2022/05/09 12:08:18;;;;;;;6.22;1.10;;;23.80;43.50;;;;;;5130391;27;20085;-74
2022/05/09 12:10:50;;;;;;;7.00;1.40;;;24.00;42.50;;;;;;5129252;27;20518;-74
2022/05/09 12:13:25;;;;;;;5.88;1.85;;;24.20;43.20;;;;;;5112666;27;20055;-74
2022/05/09 12:15:58;;;;;;;6.35;1.38;;;24.20;42.00;;;;;;5111654;27;20054;-74
2022/05/09 12:18:25;;;;;;;4.15;1.30;;;24.10;42.50;;;;;;5129973;27;20478;-74
2022/05/09 12:20:54;;;;;;;4.30;1.63;;;24.00;42.40;;;;;;5111447;27;20320;-74
2022/05/09 12:23:38;;;;;;;4.60;1.42;;;24.10;41.90;;;;;;5129622;27;20043;-74
2022/05/09 12:26:06;;;;;;;4.40;1.60;;;24.20;41.90;;;;;;5111485;27;20131;-74
2022/05/09 12:28:39;;;;;;;4.18;1.52;;;24.20;41.80;;;;;;5110787;27;20039;-74
2022/05/09 12:31:27;;;;;;;7.38;1.45;;;24.10;41.50;;;;;;5094684;27;20041;-74
2022/05/09 12:33:54;;;;;;;4.88;1.10;;;24.10;39.80;;;;;;5094305;27;20589;-74
2022/05/09 12:36:30;;;;;;;2.92;1.08;;;24.00;41.60;;;;;;5110720;27;20053;-74
2022/05/09 12:39:18;;;;;;;5.47;1.35;;;24.00;41.00;;;;;;5111876;27;20477;-74
2022/05/09 12:41:56;;;;;;;7.07;1.35;;;24.20;41.90;;;;;;5110945;27;20085;-75
2022/05/09 12:44:34;;;;;;;6.55;1.35;;;24.40;41.40;;;;;;5110652;27;20339;-75
2022/05/09 12:47:08;;;;;;;4.15;1.15;;;24.40;40.50;;;;;;5095034;27;20424;-75
2022/05/09 12:49:48;;;;;;;4.60;1.00;;;24.40;40.30;;;;;;5093136;27;20086;-75
2022/05/09 12:52:21;;;;;;;4.93;0.90;;;24.50;40.00;;;;;;5094525;27;20217;-73
2022/05/09 12:57:38;;;;;;;4.82;1.35;;;24.40;40.50;;;;;;5129038;27;20130;-74
2022/05/09 13:00:12;;;;;;;4.72;1.02;;;24.40;40.70;;;;;;5094196;27;20447;-74
2022/05/09 13:02:39;;;;;;;4.22;0.90;;;24.50;40.60;;;;;;5110072;27;20156;-74
2022/05/09 13:05:05;;;;;;;13.23;0.95;;;24.50;41.00;;;;;;5111033;27;20066;-74
2022/05/09 13:07:31;;;;;;;5.30;1.10;;;24.70;41.10;;;;;;5129027;27;20054;-75
2022/05/09 13:09:58;;;;;;;6.38;1.00;;;24.80;40.80;;;;;;5093026;27;20043;-75
2022/05/09 13:12:56;;;;;;;8.48;1.27;;;25.00;40.10;;;;;;5094017;27;20050;-74
2022/05/09 13:15:23;;;;;;;4.78;1.27;;;25.00;39.60;;;;;;5106813;27;20451;-74
2022/05/09 13:18:11;;;;;;;6.05;0.98;;;25.10;40.40;;;;;;5129182;27;20047;-74
2022/05/09 13:21:00;;;;;;;4.57;1.33;;;25.20;40.10;;;;;;5128118;27;20059;-74
2022/05/09 13:23:37;;;;;;;6.10;1.00;;;25.30;37.90;;;;;;5109859;27;20474;-73